Thunderstorms From: 26-05-2018 09:00 Until: 27-05-2018 05:00 warning for: Thunderstorms Level: Yellow info button

Although rather usual in this region, locally or potentially dangerous phenomena are expected. (such as local winds, summer thunderstorms, rising streams or high waves) Be aware and pay attention to the latest weather updates, especially if you carry out activities exposed to weather or close to a stream or shoreline. 


Meteo18 Weather Cam more information Meteo18 Weather Cam


warning for Thunderstorms more information blitzortung!


Rain radar more information rain snow radar


Visit our other weather sites:

Template documentation
and downloads

And another site



Weather Underground History page Text

Daily Summary for September 22, 2017 Units:  English    Metric   Both
« Previous Day
Next Day »
Daily Weekly Monthly Yearly Custom
  High: Low: Average:
Temperature: TemperatureC °F 8.1 °F 14.7 °F
Dew Point: DewpointC °F 7.3 °F 10.7 °F
Humidity: Humidity % 55 % 78 %
Wind Speed: WindSpeedKMH mph 0.0 mph 1.2 mph
Wind Gust: WindSpeedGustKMH mph - -
Wind:- - WSW
Pressure: PressurehPa in 1019.9 in -
Precipitation: 0.0 in    
Historical Graphs
 
 
Tabular Data for September 22, 2017
Time Temperature Dew Point Pressure Wind Wind Speed Wind Gust Humidity Rainfall Rate (Hourly)
TemperatureC °F DewpointC °F PressurehPa in Calm     Humidity % HourlyPrecipMM in
00:02 11.3 °F 9.7 °F 1019.9 in Calm     90 % 0.0 in
00:12 11.3 °F 9.7 °F 1019.9 in Calm     90 % 0.0 in
00:17 11.2 °F 9.6 °F 1019.9 in Calm     90 % 0.0 in
00:22 11.0 °F 9.4 °F 1019.9 in Calm     90 % 0.0 in
00:27 10.8 °F 9.2 °F 1019.9 in Calm     90 % 0.0 in
00:37 10.7 °F 9.3 °F 1019.9 in Calm     91 % 0.0 in
00:42 10.8 °F 9.6 °F 1019.9 in Calm     92 % 0.0 in
00:52 10.7 °F 9.3 °F 1019.9 in Calm     91 % 0.0 in
01:02 10.5 °F 9.3 °F 1020.2 in Calm     92 % 0.0 in
01:12 10.4 °F 9.0 °F 1020.2 in Calm     91 % 0.0 in
01:17 10.3 °F 8.9 °F 1020.2 in Calm     91 % 0.0 in
01:22 10.4 °F 9.2 °F 1020.2 in Calm     92 % 0.0 in
01:27 10.6 °F 9.4 °F 1020.2 in Calm     92 % 0.0 in
01:32 10.7 °F 9.5 °F 1020.2 in Calm     92 % 0.0 in
01:42 10.9 °F 9.5 °F 1020.2 in Calm     91 % 0.0 in
01:47 10.7 °F 9.1 °F 1020.2 in Calm     90 % 0.0 in
01:52 10.6 °F 9.2 °F 1020.2 in Calm     91 % 0.0 in
02:02 10.2 °F 8.8 °F 1020.2 in Calm     91 % 0.0 in
02:12 10.0 °F 8.8 °F 1020.2 in Calm     92 % 0.0 in
02:17 9.9 °F 8.7 °F 1020.5 in Calm     92 % 0.0 in
02:22 9.8 °F 8.6 °F 1020.2 in Calm     92 % 0.0 in
02:32 9.9 °F 8.8 °F 1020.2 in Calm     93 % 0.0 in
02:42 9.9 °F 8.8 °F 1020.5 in Calm     93 % 0.0 in
02:47 9.8 °F 8.7 °F 1020.5 in Calm     93 % 0.0 in
02:52 9.8 °F 8.6 °F 1020.5 in Calm     92 % 0.0 in
03:02 9.7 °F 8.6 °F 1020.5 in Calm     93 % 0.0 in
03:07 9.7 °F 8.6 °F 1020.2 in Calm     93 % 0.0 in
03:12 9.7 °F 8.6 °F 1020.2 in Calm     93 % 0.0 in
03:17 9.6 °F 8.5 °F 1020.2 in Calm     93 % 0.0 in
03:22 9.6 °F 8.4 °F 1020.2 in Calm     92 % 0.0 in
03:32 9.4 °F 8.2 °F 1020.2 in Calm     92 % 0.0 in
03:42 9.3 °F 8.2 °F 1020.2 in Calm     93 % 0.0 in
03:47 9.4 °F 8.5 °F 1020.2 in Calm     94 % 0.0 in
03:52 9.3 °F 8.2 °F 1020.5 in Calm     93 % 0.0 in
04:02 9.4 °F 8.5 °F 1020.5 in Calm     94 % 0.0 in
04:12 9.1 °F 8.0 °F 1020.5 in Calm     93 % 0.0 in
04:17 9.1 °F 8.2 °F 1020.2 in Calm     94 % 0.0 in
04:22 9.2 °F 8.3 °F 1020.5 in Calm     94 % 0.0 in
04:27 9.2 °F 8.3 °F 1020.2 in Calm     94 % 0.0 in
04:32 9.2 °F 8.3 °F 1020.5 in Calm     94 % 0.0 in
04:42 9.2 °F 8.3 °F 1020.5 in Calm     94 % 0.0 in
04:47 9.2 °F 8.3 °F 1020.5 in Calm     94 % 0.0 in
04:52 9.1 °F 8.2 °F 1020.5 in Calm     94 % 0.0 in
04:57 9.1 °F 8.2 °F 1020.5 in Calm     94 % 0.0 in
05:02 9.1 °F 8.2 °F 1020.5 in Calm     94 % 0.0 in
05:12 8.9 °F 8.0 °F 1020.5 in Calm     94 % 0.0 in
05:17 8.9 °F 8.0 °F 1020.5 in Calm     94 % 0.0 in
05:22 8.9 °F 8.0 °F 1020.5 in Calm     94 % 0.0 in
05:32 8.8 °F 7.9 °F 1020.5 in Calm     94 % 0.0 in
05:42 8.7 °F 7.8 °F 1020.5 in Calm     94 % 0.0 in
05:52 8.5 °F 7.6 °F 1020.5 in Calm     94 % 0.0 in
06:02 8.4 °F 7.6 °F 1020.5 in Calm     95 % 0.0 in
06:12 8.5 °F 7.7 °F 1020.5 in Calm     95 % 0.0 in
06:17 8.5 °F 7.7 °F 1020.5 in Calm     95 % 0.0 in
06:22 8.5 °F 7.7 °F 1020.5 in Calm     95 % 0.0 in
06:32 8.5 °F 7.7 °F 1020.9 in Calm     95 % 0.0 in
06:37 8.4 °F 7.6 °F 1020.5 in Calm     95 % 0.0 in
06:42 8.4 °F 7.6 °F 1020.5 in Calm     95 % 0.0 in
06:52 8.4 °F 7.6 °F 1020.5 in Calm     95 % 0.0 in
06:57 8.4 °F 7.6 °F 1020.5 in Calm     95 % 0.0 in
07:02 8.3 °F 7.5 °F 1020.9 in Calm     95 % 0.0 in
07:12 8.1 °F 7.3 °F 1020.9 in Calm     95 % 0.0 in
07:17 8.1 °F 7.3 °F 1020.9 in Calm     95 % 0.0 in
07:22 8.1 °F 7.3 °F 1020.9 in Calm     95 % 0.0 in
07:32 8.2 °F 7.6 °F 1021.2 in Calm     96 % 0.0 in
07:37 8.2 °F 7.6 °F 1021.2 in Calm     96 % 0.0 in
07:42 8.2 °F 7.6 °F 1021.2 in Calm     96 % 0.0 in
07:47 8.2 °F 7.6 °F 1021.2 in Calm     96 % 0.0 in
07:52 8.1 °F 7.3 °F 1021.2 in Calm     95 % 0.0 in
08:02 8.3 °F 7.7 °F 1021.2 in Calm     96 % 0.0 in
08:12 8.3 °F 7.5 °F 1021.2 in Calm     95 % 0.0 in
08:17 8.4 °F 7.6 °F 1021.6 in Calm     95 % 0.0 in
08:22 8.6 °F 8.0 °F 1021.6 in Calm     96 % 0.0 in
08:32 9.1 °F 8.5 °F 1021.6 in Calm     96 % 0.0 in
08:42 10.1 °F 9.5 °F 1021.6 in Calm     96 % 0.0 in
08:52 10.3 °F 9.5 °F 1021.6 in Calm     95 % 0.0 in
09:02 11.1 °F 10.2 °F 1021.6 in Calm     94 % 0.0 in
09:12 11.5 °F 10.4 °F 1021.6 in Calm     93 % 0.0 in
09:17 12.2 °F 11.3 °F 1021.6 in Calm     94 % 0.0 in
09:22 12.5 °F 11.1 °F 1021.6 in Calm     91 % 0.0 in
09:32 13.6 °F 11.8 °F 1021.6 in Calm     89 % 0.0 in
09:37 14.3 °F 12.2 °F 1021.6 in Calm     87 % 0.0 in
09:42 14.9 °F 11.9 °F 1021.6 in Calm     82 % 0.0 in
09:47 15.2 °F 11.8 °F 1021.9 in Calm     80 % 0.0 in
09:52 15.4 °F 11.6 °F 1021.9 in Calm     78 % 0.0 in
10:02 15.2 °F 11.6 °F 1021.9 in Calm     79 % 0.0 in
10:07 15.0 °F 11.6 °F 1021.9 in Calm     80 % 0.0 in
10:12 15.7 °F 12.1 °F 1021.9 in Calm     79 % 0.0 in
10:17 15.6 °F 11.8 °F 1021.9 in Calm     78 % 0.0 in
10:22 15.5 °F 11.7 °F 1021.9 in Calm     78 % 0.0 in
10:32 15.1 °F 11.7 °F 1021.9 in Calm     80 % 0.0 in
10:37 15.2 °F 12.0 °F 1021.9 in Calm     81 % 0.0 in
10:42 15.3 °F 11.9 °F 1021.9 in Calm     80 % 0.0 in
10:52 15.6 °F 12.0 °F 1021.9 in Calm     79 % 0.0 in
11:02 16.6 °F 12.7 °F 1021.9 in Calm     78 % 0.0 in
11:07 16.8 °F 12.5 °F 1021.9 in Calm     76 % 0.0 in
11:12 17.1 °F 12.4 °F 1022.2 in Calm     74 % 0.0 in
11:17 17.1 °F 12.4 °F 1022.2 in Calm     74 % 0.0 in
11:22 17.4 °F 12.5 °F 1022.2 in Calm     73 % 0.0 in
11:32 18.2 °F 12.6 °F 1022.2 in Calm     70 % 0.0 in
11:42 18.4 °F 12.4 °F 1022.2 in Calm     68 % 0.0 in
11:47 18.7 °F 12.4 °F 1022.2 in Calm     67 % 0.0 in
11:52 18.9 °F 12.2 °F 1022.2 in Calm     65 % 0.0 in
12:02 19.1 °F 12.4 °F 1022.2 in Calm     65 % 0.0 in
12:07 19.1 °F 12.1 °F 1022.2 in Calm     64 % 0.0 in
12:17 19.7 °F 12.5 °F 1022.2 in Calm     63 % 0.0 in
12:22 19.7 °F 12.0 °F 1022.2 in Calm     61 % 0.0 in
12:27 19.6 °F 11.9 °F 1022.2 in Calm     61 % 0.0 in
12:32 19.7 °F 12.0 °F 1022.2 in Calm     61 % 0.0 in
12:42 19.6 °F 11.9 °F 1022.2 in Calm   4.8 mph 61 % 0.0 in
12:52 19.9 °F 12.2 °F 1022.2 in West 1.6 mph 8.0 mph 61 % 0.0 in
13:02 20.0 °F 12.5 °F 1022.2 in WNW 3.2 mph 8.0 mph 62 % 0.0 in
13:12 20.3 °F 12.8 °F 1022.2 in WNW 4.8 mph 4.8 mph 62 % 0.0 in
13:17 20.3 °F 12.8 °F 1022.2 in SSW 1.6 mph 8.0 mph 62 % 0.0 in
13:22 20.3 °F 12.5 °F 1022.2 in WNW 4.8 mph 8.0 mph 61 % 0.0 in
13:32 20.3 °F 13.0 °F 1022.2 in Calm   8.0 mph 63 % 0.0 in
13:42 20.8 °F 12.7 °F 1022.2 in NE 1.6 mph 8.0 mph 60 % 0.0 in
13:52 21.2 °F 13.1 °F 1022.2 in SW 3.2 mph 6.4 mph 60 % 0.0 in
13:57 21.2 °F 12.9 °F 1022.2 in SW 4.8 mph 8.0 mph 59 % 0.0 in
14:02 21.5 °F 12.9 °F 1022.2 in SSW 1.6 mph 8.0 mph 58 % 0.0 in
14:12 20.7 °F 12.4 °F 1022.2 in West 3.2 mph 8.0 mph 59 % 0.0 in
14:22 20.3 °F 12.5 °F 1022.2 in Calm   8.0 mph 61 % 0.0 in
14:27 20.3 °F 12.5 °F 1022.2 in Calm   8.0 mph 61 % 0.0 in
14:32 20.3 °F 12.5 °F 1022.2 in NNW 1.6 mph 8.0 mph 61 % 0.0 in
14:42 20.2 °F 12.4 °F 1022.2 in Calm   6.4 mph 61 % 0.0 in
14:47 20.2 °F 12.2 °F 1022.2 in Calm   8.0 mph 60 % 0.0 in
14:52 20.3 °F 12.3 °F 1022.2 in NE 1.6 mph 8.0 mph 60 % 0.0 in
14:57 20.3 °F 11.8 °F 1022.2 in North 3.2 mph 3.2 mph 58 % 0.0 in
15:02 20.3 °F 11.8 °F 1022.2 in Calm   3.2 mph 58 % 0.0 in
15:12 20.4 °F 11.3 °F 1022.2 in Calm   4.8 mph 56 % 0.0 in
15:17 20.5 °F 11.4 °F 1022.2 in NNE 3.2 mph 4.8 mph 56 % 0.0 in
15:22 20.6 °F 12.0 °F 1022.2 in North 1.6 mph 4.8 mph 58 % 0.0 in
15:32 20.6 °F 12.3 °F 1022.2 in WNW 1.6 mph 4.8 mph 59 % 0.0 in
15:42 20.6 °F 12.3 °F 1022.2 in NNE 1.6 mph 9.7 mph 59 % 0.0 in
15:47 21.0 °F 11.9 °F 1022.2 in NNW 1.6 mph 9.7 mph 56 % 0.0 in
15:52 21.2 °F 11.8 °F 1022.2 in North 1.6 mph 9.7 mph 55 % 0.0 in
16:02 20.8 °F 11.7 °F 1022.2 in NNW 3.2 mph 8.0 mph 56 % 0.0 in
16:12 20.7 °F 11.9 °F 1022.2 in NW 3.2 mph 9.7 mph 57 % 0.0 in
16:17 20.7 °F 12.4 °F 1022.2 in NNW 1.6 mph 8.0 mph 59 % 0.0 in
16:22 20.8 °F 12.2 °F 1022.2 in North 1.6 mph 8.0 mph 58 % 0.0 in
16:32 21.0 °F 12.2 °F 1022.2 in NNW 9.7 mph 9.7 mph 57 % 0.0 in
16:42 21.1 °F 12.8 °F 1022.2 in WNW 3.2 mph 14.5 mph 59 % 0.0 in
16:52 20.9 °F 11.8 °F 1022.2 in WSW 1.6 mph 14.5 mph 56 % 0.0 in
17:02 21.1 °F 12.2 °F 1022.2 in NW 3.2 mph 11.3 mph 57 % 0.0 in
17:12 21.3 °F 12.2 °F 1022.2 in NW 3.2 mph 11.3 mph 56 % 0.0 in
17:17 21.3 °F 12.4 °F 1022.2 in WNW 6.4 mph 12.9 mph 57 % 0.0 in
17:22 21.4 °F 12.0 °F 1022.2 in WNW 3.2 mph 12.9 mph 55 % 0.0 in
17:27 21.5 °F 12.4 °F 1022.2 in NW 4.8 mph 12.9 mph 56 % 0.0 in
17:32 21.3 °F 11.9 °F 1022.2 in NW 4.8 mph 12.9 mph 55 % 0.0 in
17:37 21.3 °F 11.9 °F 1021.9 in NW 4.8 mph 12.9 mph 55 % 0.0 in
17:47 20.9 °F 12.1 °F 1022.2 in WNW 6.4 mph 14.5 mph 57 % 0.0 in
17:52 20.9 °F 12.3 °F 1021.9 in NNW 1.6 mph 14.5 mph 58 % 0.0 in
17:57 21.1 °F 12.2 °F 1022.2 in WNW 3.2 mph 11.3 mph 57 % 0.0 in
18:02 21.0 °F 12.2 °F 1022.2 in WNW 3.2 mph 11.3 mph 57 % 0.0 in
18:12 21.0 °F 12.4 °F 1022.2 in WNW 3.2 mph 9.7 mph 58 % 0.0 in
18:17 21.0 °F 12.7 °F 1022.2 in WNW 1.6 mph 9.7 mph 59 % 0.0 in
18:22 20.9 °F 12.6 °F 1022.2 in NNW 1.6 mph 8.0 mph 59 % 0.0 in
18:32 20.9 °F 12.3 °F 1022.2 in Calm   8.0 mph 58 % 0.0 in
18:37 20.9 °F 12.6 °F 1022.2 in NNE 1.6 mph 8.0 mph 59 % 0.0 in
18:42 20.7 °F 12.7 °F 1022.2 in NNE 3.2 mph 8.0 mph 60 % 0.0 in
18:52 20.3 °F 12.8 °F 1022.2 in Calm   9.7 mph 62 % 0.0 in
19:02 20.1 °F 13.1 °F 1022.2 in NNW 8.0 mph 12.9 mph 64 % 0.0 in
19:12 19.9 °F 12.9 °F 1022.2 in NE 6.4 mph 12.9 mph 64 % 0.0 in
19:17 19.8 °F 13.0 °F 1022.2 in ENE 4.8 mph 11.3 mph 65 % 0.0 in
19:22 19.6 °F 13.1 °F 1022.2 in NNE 4.8 mph 11.3 mph 66 % 0.0 in
19:32 19.3 °F 13.0 °F 1022.6 in NW 3.2 mph 9.7 mph 67 % 0.0 in
19:37 19.0 °F 13.0 °F 1022.6 in North 3.2 mph 9.7 mph 68 % 0.0 in
19:42 18.8 °F 13.0 °F 1022.6 in North 1.6 mph 9.7 mph 69 % 0.0 in
19:47 18.6 °F 13.0 °F 1022.6 in North 1.6 mph 6.4 mph 70 % 0.0 in
19:52 18.3 °F 13.0 °F 1022.6 in Calm   6.4 mph 71 % 0.0 in
19:57 18.1 °F 13.2 °F 1022.9 in NNW 1.6 mph 8.0 mph 73 % 0.0 in
20:02 17.7 °F 12.8 °F 1022.9 in NNW 3.2 mph 8.0 mph 73 % 0.0 in
20:17 17.0 °F 12.7 °F 1022.9 in NNW 3.2 mph 4.8 mph 76 % 0.0 in
20:32 16.4 °F 12.4 °F 1023.2 in Calm   4.8 mph 77 % 0.0 in
20:37 16.3 °F 12.5 °F 1023.2 in Calm   4.8 mph 78 % 0.0 in
20:42 16.1 °F 12.3 °F 1023.2 in Calm   4.8 mph 78 % 0.0 in
20:47 15.9 °F 12.3 °F 1023.2 in NNW 1.6 mph 6.4 mph 79 % 0.0 in
20:57 15.7 °F 12.3 °F 1023.2 in Calm   4.8 mph 80 % 0.0 in
21:02 15.6 °F 12.2 °F 1023.6 in Calm   4.8 mph 80 % 0.0 in
21:12 15.2 °F 12.1 °F 1023.6 in North 1.6 mph 3.2 mph 82 % 0.0 in
21:22 15.2 °F 12.1 °F 1023.6 in NNW 1.6 mph 3.2 mph 82 % 0.0 in
21:32 15.1 °F 12.0 °F 1023.6 in NNW 1.6 mph 4.8 mph 82 % 0.0 in
21:37 15.1 °F 12.0 °F 1023.6 in NNW 3.2 mph 6.4 mph 82 % 0.0 in
21:47 15.1 °F 12.2 °F 1023.6 in NNW 1.6 mph 6.4 mph 83 % 0.0 in
21:52 15.1 °F 12.2 °F 1023.9 in NNW 3.2 mph 6.4 mph 83 % 0.0 in
21:57 14.9 °F 12.0 °F 1023.9 in NNW 3.2 mph 6.4 mph 83 % 0.0 in
22:02 14.9 °F 12.2 °F 1023.9 in WNW 3.2 mph 6.4 mph 84 % 0.0 in
22:12 14.7 °F 12.0 °F 1023.9 in North 1.6 mph 6.4 mph 84 % 0.0 in
22:17 14.6 °F 12.1 °F 1023.9 in NNW 3.2 mph 6.4 mph 85 % 0.0 in
22:22 14.6 °F 12.1 °F 1023.9 in NNW 1.6 mph 6.4 mph 85 % 0.0 in
22:32 14.7 °F 12.2 °F 1023.9 in NW 3.2 mph 4.8 mph 85 % 0.0 in
22:37 14.8 °F 12.3 °F 1023.9 in North 4.8 mph 6.4 mph 85 % 0.0 in
22:42 14.8 °F 12.3 °F 1023.9 in NNE 3.2 mph 6.4 mph 85 % 0.0 in
22:52 14.7 °F 12.2 °F 1023.9 in NNE 8.0 mph 8.0 mph 85 % 0.0 in
23:02 14.7 °F 12.2 °F 1023.9 in NNE 4.8 mph 8.0 mph 85 % 0.0 in
23:12 14.6 °F 12.1 °F 1024.3 in NNE 9.7 mph 11.3 mph 85 % 0.0 in
23:17 14.6 °F 12.1 °F 1024.3 in NNE 4.8 mph 11.3 mph 85 % 0.0 in
23:22 14.4 °F 12.1 °F 1023.9 in Calm   11.3 mph 86 % 0.0 in
23:32 14.1 °F 11.8 °F 1024.3 in Calm   11.3 mph 86 % 0.0 in
23:37 13.9 °F 11.8 °F 1024.3 in Calm   3.2 mph 87 % 0.0 in
23:42 13.9 °F 11.9 °F 1024.3 in NNW 1.6 mph 3.2 mph 88 % 0.0 in
23:47 13.9 °F 11.9 °F 1024.3 in NNE 1.6 mph 11.3 mph 88 % 0.0 in
Meteo18
Compliments of Weather Underground - 4 mb

Script developed by  Jim McMurry - jmcmurry@mwt.net Adapted for the template by  Wim van der Kuil - Leuven-Template.eu

You find our weather info also at:

European Weather Network

Weather Underground

Equipment we use:

Weather-station
Davis Vue

Weather-program
Meteobridge

Weather-server
Raspberry PI 2 B+

Provider
1 and 1

Davis Vue

Meteobridge

Raspberry PI 2 B+

1 and 1